PRIVATE WETTERSTATION BILLIGHEIM-ALLFELD                       ZURCK
Wetterdaten: Donnerstag, 07.12.2017
Datum Zeit Temp. A. Temp. A. min Temp. A. max Feuchte A. Luftdruck Regen Wind Richtung Richtung Sonnenschein ET Solar Taupunkt Windchill Windben Empfang
07.12.2017 00:00 2,7 C 2,7 C 2,7 C 90 % 1028,9 hPa 0,0 l/m 1,6 km/h (1 Bft) S 180 0 min 0,000 mm 0 W/m 1,2 C 2,7 C 6,4 km/h (2 Bft) 100 %
07.12.2017 00:10 2,6 C 2,6 C 2,7 C 90 % 1028,8 hPa 0,0 l/m 0,0 km/h (0 Bft) S 180 0 min 0,000 mm 0 W/m 1,1 C 2,6 C 1,6 km/h (1 Bft) 100 %
07.12.2017 00:20 2,6 C 2,6 C 2,6 C 90 % 1028,6 hPa 0,0 l/m 0,0 km/h (0 Bft) N 0 0 min 0,000 mm 0 W/m 1,1 C 2,6 C 0,0 km/h (0 Bft) 100 %
07.12.2017 00:30 2,5 C 2,5 C 2,6 C 90 % 1028,4 hPa 0,0 l/m 0,0 km/h (0 Bft) N 0 0 min 0,000 mm 0 W/m 1,0 C 2,5 C 0,0 km/h (0 Bft) 100 %
07.12.2017 00:40 2,4 C 2,4 C 2,5 C 89 % 1028,3 hPa 0,0 l/m 4,8 km/h (1 Bft) S 180 0 min 0,000 mm 0 W/m 0,8 C 2,4 C 16,1 km/h (3 Bft) 100 %
07.12.2017 00:50 2,4 C 2,4 C 2,5 C 89 % 1028,1 hPa 0,0 l/m 8,0 km/h (2 Bft) S-SW 202 0 min 0,000 mm 0 W/m 0,8 C 0,9 C 16,1 km/h (3 Bft) 100 %
07.12.2017 01:00 2,3 C 2,3 C 2,4 C 89 % 1027,9 hPa 0,0 l/m 6,4 km/h (2 Bft) S-SW 202 0 min 0,000 mm 0 W/m 0,7 C 2,3 C 16,1 km/h (3 Bft) 90 %
07.12.2017 01:10 2,2 C 2,2 C 2,3 C 88 % 1027,7 hPa 0,0 l/m 8,0 km/h (2 Bft) S-SW 202 0 min 0,000 mm 0 W/m 0,4 C 0,7 C 17,7 km/h (3 Bft) 99 %
07.12.2017 01:20 2,0 C 2,0 C 2,2 C 88 % 1027,7 hPa 0,0 l/m 6,4 km/h (2 Bft) S-SW 202 0 min 0,000 mm 0 W/m 0,2 C 2,0 C 14,5 km/h (3 Bft) 100 %
07.12.2017 01:30 1,8 C 1,8 C 2,0 C 94 % 1027,6 hPa 0,0 l/m 4,8 km/h (1 Bft) S-SW 202 0 min 0,000 mm 0 W/m 0,9 C 1,8 C 12,9 km/h (3 Bft) 100 %
07.12.2017 01:40 1,6 C 1,6 C 1,8 C 88 % 1027,7 hPa 0,0 l/m 6,4 km/h (2 Bft) S-SW 202 0 min 0,000 mm 0 W/m -0,2 C 1,6 C 11,3 km/h (2 Bft) 100 %
07.12.2017 01:50 1,4 C 1,4 C 1,6 C 88 % 1027,5 hPa 0,0 l/m 1,6 km/h (1 Bft) S 180 0 min 0,000 mm 0 W/m -0,4 C 1,4 C 4,8 km/h (1 Bft) 100 %
07.12.2017 02:00 1,0 C 1,0 C 1,4 C 89 % 1027,5 hPa 0,0 l/m 1,6 km/h (1 Bft) S-SW 202 0 min 0,000 mm 0 W/m -0,6 C 1,0 C 6,4 km/h (2 Bft) 100 %
07.12.2017 02:10 0,7 C 0,7 C 1,0 C 90 % 1027,4 hPa 0,0 l/m 0,0 km/h (0 Bft) S 180 0 min 0,000 mm 0 W/m -0,7 C 0,7 C 3,2 km/h (1 Bft) 100 %
07.12.2017 02:20 0,4 C 0,4 C 0,7 C 90 % 1027,4 hPa 0,0 l/m 0,0 km/h (0 Bft) N 0 0 min 0,000 mm 0 W/m -1,0 C 0,4 C 0,0 km/h (0 Bft) 100 %
07.12.2017 02:30 0,2 C 0,2 C 0,4 C 90 % 1027,3 hPa 0,0 l/m 0,0 km/h (0 Bft) N 0 0 min 0,000 mm 0 W/m -1,2 C 0,2 C 0,0 km/h (0 Bft) 100 %
07.12.2017 02:40 0,0 C 0,0 C 0,2 C 91 % 1027,2 hPa 0,0 l/m 0,0 km/h (0 Bft) S 180 0 min 0,000 mm 0 W/m -1,3 C 0,0 C 4,8 km/h (1 Bft) 90 %
07.12.2017 02:50 -0,1 C -0,1 C 0,0 C 91 % 1027,1 hPa 0,0 l/m 1,6 km/h (1 Bft) S 180 0 min 0,000 mm 0 W/m -1,4 C -0,1 C 6,4 km/h (2 Bft) 100 %
07.12.2017 03:00 -0,2 C -0,3 C -0,1 C 91 % 1027,1 hPa 0,0 l/m 1,6 km/h (1 Bft) S 180 0 min 0,000 mm 0 W/m -1,5 C -0,2 C 4,8 km/h (1 Bft) 100 %
07.12.2017 03:10 -0,4 C -0,4 C -0,2 C 91 % 1026,9 hPa 0,0 l/m 0,0 km/h (0 Bft) S 180 0 min 0,000 mm 0 W/m -1,7 C -0,4 C 4,8 km/h (1 Bft) 100 %
07.12.2017 03:20 -0,6 C -0,6 C -0,4 C 91 % 1026,8 hPa 0,0 l/m 1,6 km/h (1 Bft) S 180 0 min 0,000 mm 0 W/m -1,9 C -0,6 C 8,0 km/h (2 Bft) 100 %
07.12.2017 03:30 -0,6 C -0,6 C -0,6 C 91 % 1026,5 hPa 0,0 l/m 0,0 km/h (0 Bft) S 180 0 min 0,000 mm 0 W/m -1,9 C -0,6 C 1,6 km/h (1 Bft) 100 %
07.12.2017 03:40 -0,7 C -0,7 C -0,6 C 91 % 1026,4 hPa 0,0 l/m 0,0 km/h (0 Bft) N 0 0 min 0,000 mm 0 W/m -2,0 C -0,7 C 0,0 km/h (0 Bft) 100 %
07.12.2017 03:50 -0,7 C -0,8 C -0,7 C 91 % 1026,3 hPa 0,0 l/m 0,0 km/h (0 Bft) S-SO 157 0 min 0,000 mm 0 W/m -2,0 C -0,7 C 6,4 km/h (2 Bft) 100 %
07.12.2017 04:00 -0,8 C -0,8 C -0,7 C 91 % 1026,2 hPa 0,0 l/m 1,6 km/h (1 Bft) S-SO 157 0 min 0,000 mm 0 W/m -2,1 C -0,8 C 8,0 km/h (2 Bft) 89 %
07.12.2017 04:10 -0,8 C -0,8 C -0,8 C 91 % 1026,1 hPa 0,0 l/m 1,6 km/h (1 Bft) S-SO 157 0 min 0,000 mm 0 W/m -2,1 C -0,8 C 6,4 km/h (2 Bft) 100 %
07.12.2017 04:20 -0,8 C -0,8 C -0,8 C 91 % 1026,0 hPa 0,0 l/m 1,6 km/h (1 Bft) S-SO 157 0 min 0,000 mm 0 W/m -2,1 C -0,8 C 6,4 km/h (2 Bft) 100 %
07.12.2017 04:30 -0,9 C -0,9 C -0,8 C 91 % 1025,9 hPa 0,0 l/m 1,6 km/h (1 Bft) S-SO 157 0 min 0,000 mm 0 W/m -2,2 C -0,9 C 6,4 km/h (2 Bft) 100 %
07.12.2017 04:40 -1,0 C -1,0 C -0,8 C 91 % 1025,8 hPa 0,0 l/m 0,0 km/h (0 Bft) S-SO 157 0 min 0,000 mm 0 W/m -2,3 C -1,0 C 6,4 km/h (2 Bft) 100 %
07.12.2017 04:50 -1,0 C -1,0 C -1,0 C 91 % 1025,7 hPa 0,0 l/m 0,0 km/h (0 Bft) N 0 0 min 0,000 mm 0 W/m -2,3 C -1,0 C 0,0 km/h (0 Bft) 100 %
07.12.2017 05:00 -1,0 C -1,1 C -1,0 C 91 % 1025,6 hPa 0,0 l/m 0,0 km/h (0 Bft) N 0 0 min 0,000 mm 0 W/m -2,3 C -1,0 C 0,0 km/h (0 Bft) 100 %
07.12.2017 05:10 -1,2 C -1,2 C -1,0 C 91 % 1025,5 hPa 0,0 l/m 0,0 km/h (0 Bft) N 0 0 min 0,000 mm 0 W/m -2,5 C -1,2 C 0,0 km/h (0 Bft) 91 %
07.12.2017 05:20 -1,2 C -1,3 C -1,2 C 91 % 1025,4 hPa 0,0 l/m 0,0 km/h (0 Bft) N 0 0 min 0,000 mm 0 W/m -2,5 C -1,2 C 0,0 km/h (0 Bft) 100 %
07.12.2017 05:30 -1,2 C -1,3 C -1,2 C 91 % 1025,3 hPa 0,0 l/m 0,0 km/h (0 Bft) N 0 0 min 0,000 mm 0 W/m -2,5 C -1,2 C 0,0 km/h (0 Bft) 100 %
07.12.2017 05:40 -1,2 C -1,2 C -1,2 C 91 % 1025,2 hPa 0,0 l/m 0,0 km/h (0 Bft) N 0 0 min 0,000 mm 0 W/m -2,5 C -1,2 C 0,0 km/h (0 Bft) 100 %
07.12.2017 05:50 -1,3 C -1,3 C -1,2 C 91 % 1025,1 hPa 0,0 l/m 0,0 km/h (0 Bft) S-SO 157 0 min 0,000 mm 0 W/m -2,6 C -1,3 C 1,6 km/h (1 Bft) 100 %
07.12.2017 06:00 -1,4 C -1,4 C -1,3 C 91 % 1025,1 hPa 0,0 l/m 0,0 km/h (0 Bft) N 0 0 min 0,000 mm 0 W/m -2,7 C -1,4 C 0,0 km/h (0 Bft) 100 %
07.12.2017 06:10 -1,6 C -1,6 C -1,4 C 91 % 1025,0 hPa 0,0 l/m 0,0 km/h (0 Bft) S-SO 157 0 min 0,000 mm 0 W/m -2,9 C -1,6 C 4,8 km/h (1 Bft) 100 %
07.12.2017 06:20 -1,6 C -1,7 C -1,6 C 91 % 1024,9 hPa 0,0 l/m 1,6 km/h (1 Bft) S-SO 157 0 min 0,000 mm 0 W/m -2,9 C -1,6 C 6,4 km/h (2 Bft) 100 %
07.12.2017 06:30 -1,7 C -1,7 C -1,6 C 91 % 1024,9 hPa 0,0 l/m 1,6 km/h (1 Bft) S 180 0 min 0,000 mm 0 W/m -3,0 C -1,7 C 4,8 km/h (1 Bft) 89 %
07.12.2017 06:40 -1,8 C -1,8 C -1,7 C 91 % 1024,9 hPa 0,0 l/m 1,6 km/h (1 Bft) S 180 0 min 0,000 mm 0 W/m -3,1 C -1,8 C 8,0 km/h (2 Bft) 100 %
07.12.2017 06:50 -1,9 C -1,9 C -1,8 C 91 % 1024,9 hPa 0,0 l/m 3,2 km/h (1 Bft) S-SW 202 0 min 0,000 mm 0 W/m -3,2 C -1,9 C 8,0 km/h (2 Bft) 100 %
07.12.2017 07:00 -1,9 C -1,9 C -1,9 C 91 % 1024,9 hPa 0,0 l/m 4,8 km/h (1 Bft) S-SW 202 0 min 0,000 mm 0 W/m -3,2 C -1,9 C 9,7 km/h (2 Bft) 100 %
07.12.2017 07:10 -1,9 C -1,9 C -1,9 C 91 % 1024,9 hPa 0,0 l/m 3,2 km/h (1 Bft) S-SW 202 0 min 0,000 mm 0 W/m -3,2 C -1,9 C 8,0 km/h (2 Bft) 100 %
07.12.2017 07:20 -1,9 C -2,0 C -1,9 C 91 % 1024,9 hPa 0,0 l/m 1,6 km/h (1 Bft) S-SW 202 0 min 0,000 mm 0 W/m -3,2 C -1,9 C 6,4 km/h (2 Bft) 100 %
07.12.2017 07:30 -1,9 C -2,0 C -1,9 C 91 % 1024,8 hPa 0,0 l/m 1,6 km/h (1 Bft) SW 225 0 min 0,000 mm 0 W/m -3,2 C -1,9 C 6,4 km/h (2 Bft) 100 %
07.12.2017 07:40 -1,9 C -1,9 C -1,9 C 91 % 1024,8 hPa 0,0 l/m 1,6 km/h (1 Bft) W-SW 247 0 min 0,000 mm 0 W/m -3,2 C -1,9 C 9,7 km/h (2 Bft) 100 %
07.12.2017 07:50 -1,4 C -1,9 C -1,4 C 91 % 1024,8 hPa 0,0 l/m 8,0 km/h (2 Bft) S-SW 202 0 min 0,000 mm 0 W/m -2,7 C -3,1 C 24,1 km/h (4 Bft) 100 %
07.12.2017 08:00 -1,2 C -1,4 C -1,2 C 91 % 1024,8 hPa 0,0 l/m 4,8 km/h (1 Bft) S-SW 202 0 min 0,000 mm 0 W/m -2,5 C -1,2 C 11,3 km/h (2 Bft) 100 %
07.12.2017 08:10 -1,1 C -1,2 C -1,1 C 91 % 1024,9 hPa 0,0 l/m 4,8 km/h (1 Bft) S 180 0 min 0,000 mm 0 W/m -2,4 C -1,1 C 11,3 km/h (2 Bft) 100 %
07.12.2017 08:20 -1,0 C -1,1 C -1,0 C 91 % 1024,7 hPa 0,0 l/m 6,4 km/h (2 Bft) S-SW 202 0 min 0,000 mm 5 W/m -2,3 C -1,0 C 16,1 km/h (3 Bft) 100 %
07.12.2017 08:30 -1,0 C -1,0 C -1,0 C 91 % 1024,7 hPa 0,0 l/m 6,4 km/h (2 Bft) S-SW 202 0 min 0,000 mm 9 W/m -2,3 C -1,0 C 11,3 km/h (2 Bft) 100 %
07.12.2017 08:40 -1,0 C -1,0 C -1,0 C 91 % 1024,7 hPa 0,0 l/m 8,0 km/h (2 Bft) S-SW 202 0 min 0,000 mm 9 W/m -2,3 C -2,7 C 17,7 km/h (3 Bft) 100 %
07.12.2017 08:50 -0,9 C -1,0 C -0,9 C 91 % 1024,8 hPa 0,0 l/m 6,4 km/h (2 Bft) S-SW 202 0 min 0,000 mm 18 W/m -2,2 C -0,9 C 16,1 km/h (3 Bft) 100 %
07.12.2017 09:00 -0,9 C -0,9 C -0,9 C 91 % 1024,7 hPa 0,0 l/m 6,4 km/h (2 Bft) S-SW 202 0 min 0,000 mm 23 W/m -2,2 C -0,9 C 9,7 km/h (2 Bft) 92 %
07.12.2017 09:10 -0,9 C -0,9 C -0,9 C 91 % 1024,7 hPa 0,0 l/m 6,4 km/h (2 Bft) S-SW 202 0 min 0,000 mm 25 W/m -2,2 C -0,9 C 16,1 km/h (3 Bft) 100 %
07.12.2017 09:20 -0,8 C -0,9 C -0,8 C 91 % 1024,6 hPa 0,0 l/m 6,4 km/h (2 Bft) S 180 0 min 0,000 mm 32 W/m -2,1 C -0,8 C 11,3 km/h (2 Bft) 100 %
07.12.2017 09:30 -0,8 C -0,8 C -0,8 C 91 % 1024,5 hPa 0,0 l/m 6,4 km/h (2 Bft) S-SW 202 0 min 0,000 mm 39 W/m -2,1 C -0,8 C 11,3 km/h (2 Bft) 100 %
07.12.2017 09:40 -0,8 C -0,8 C -0,8 C 91 % 1024,4 hPa 0,0 l/m 4,8 km/h (1 Bft) S 180 0 min 0,000 mm 40 W/m -2,1 C -0,8 C 16,1 km/h (3 Bft) 100 %
07.12.2017 09:50 -0,8 C -0,9 C -0,8 C 91 % 1024,3 hPa 0,0 l/m 6,4 km/h (2 Bft) S 180 0 min 0,000 mm 53 W/m -2,1 C -0,8 C 14,5 km/h (3 Bft) 100 %
07.12.2017 10:00 -0,8 C -0,9 C -0,8 C 91 % 1024,2 hPa 0,0 l/m 8,0 km/h (2 Bft) S-SW 202 0 min 0,025 mm 63 W/m -2,1 C -2,5 C 20,9 km/h (4 Bft) 100 %
07.12.2017 10:10 -0,8 C -0,8 C -0,8 C 91 % 1024,2 hPa 0,0 l/m 6,4 km/h (2 Bft) S-SW 202 0 min 0,000 mm 58 W/m -2,1 C -0,8 C 16,1 km/h (3 Bft) 99 %
07.12.2017 10:20 -0,7 C -0,8 C -0,7 C 91 % 1024,2 hPa 0,0 l/m 4,8 km/h (1 Bft) S 180 0 min 0,000 mm 69 W/m -2,0 C -0,7 C 9,7 km/h (2 Bft) 89 %
07.12.2017 10:30 -0,7 C -0,7 C -0,7 C 91 % 1024,1 hPa 0,0 l/m 4,8 km/h (1 Bft) S 180 0 min 0,000 mm 83 W/m -2,0 C -0,7 C 9,7 km/h (2 Bft) 100 %
07.12.2017 10:40 -0,6 C -0,7 C -0,6 C 91 % 1024,0 hPa 0,0 l/m 6,4 km/h (2 Bft) S-SO 157 0 min 0,000 mm 88 W/m -1,9 C -0,6 C 16,1 km/h (3 Bft) 100 %
07.12.2017 10:50 -0,5 C -0,6 C -0,5 C 91 % 1023,9 hPa 0,0 l/m 6,4 km/h (2 Bft) S-SW 202 0 min 0,000 mm 81 W/m -1,8 C -0,5 C 17,7 km/h (3 Bft) 100 %
07.12.2017 11:00 -0,3 C -0,5 C -0,3 C 91 % 1023,7 hPa 0,0 l/m 8,0 km/h (2 Bft) S-SW 202 10 min 0,025 mm 251 W/m -1,6 C -2,0 C 16,1 km/h (3 Bft) 100 %
07.12.2017 11:10 -0,2 C -0,3 C -0,2 C 91 % 1023,5 hPa 0,0 l/m 6,4 km/h (2 Bft) S-SW 202 10 min 0,000 mm 186 W/m -1,5 C -0,2 C 11,3 km/h (2 Bft) 100 %
07.12.2017 11:20 0,1 C -0,2 C 0,1 C 91 % 1023,4 hPa 0,0 l/m 6,4 km/h (2 Bft) S-SW 202 10 min 0,000 mm 248 W/m -1,2 C 0,1 C 14,5 km/h (3 Bft) 100 %
07.12.2017 11:30 0,1 C -0,2 C 0,2 C 91 % 1023,2 hPa 0,0 l/m 6,4 km/h (2 Bft) SW 231 0 min 0,001 mm 128 W/m -1,2 C 0,1 C 11,3 km/h (2 Bft) 99 %
07.12.2017 11:40 0,2 C 0,1 C 0,2 C 91 % 1023,1 hPa 0,0 l/m 4,9 km/h (1 Bft) SW 232 10 min 0,000 mm 192 W/m -1,1 C 0,2 C 14,5 km/h (3 Bft) 99 %
07.12.2017 11:50 0,6 C 0,2 C 0,7 C 91 % 1022,9 hPa 0,0 l/m 5,1 km/h (1 Bft) S-SW 205 10 min 0,000 mm 209 W/m -0,7 C 0,6 C 11,3 km/h (2 Bft) 100 %
07.12.2017 12:00 1,1 C 0,6 C 1,1 C 91 % 1022,7 hPa 0,0 l/m 5,6 km/h (1 Bft) S-SW 205 10 min 0,051 mm 206 W/m -0,2 C 1,1 C 12,9 km/h (3 Bft) 100 %
07.12.2017 12:10 1,5 C 1,1 C 1,5 C 91 % 1022,6 hPa 0,0 l/m 7,1 km/h (2 Bft) S-SW 194 10 min 0,000 mm 202 W/m 0,2 C 0,8 C 11,3 km/h (2 Bft) 100 %
07.12.2017 12:20 1,9 C 1,5 C 1,9 C 91 % 1022,4 hPa 0,0 l/m 8,2 km/h (2 Bft) S-SO 153 10 min 0,000 mm 178 W/m 0,6 C 0,2 C 16,1 km/h (3 Bft) 100 %
07.12.2017 12:30 2,2 C 1,9 C 2,2 C 91 % 1022,2 hPa 0,0 l/m 6,2 km/h (2 Bft) S 180 10 min 0,000 mm 243 W/m 0,9 C 2,2 C 14,5 km/h (3 Bft) 100 %
07.12.2017 12:40 2,4 C 2,2 C 2,4 C 91 % 1022,1 hPa 0,0 l/m 9,1 km/h (2 Bft) S-SW 209 10 min 0,000 mm 271 W/m 1,1 C -0,1 C 20,9 km/h (4 Bft) 100 %
07.12.2017 12:50 2,8 C 2,4 C 2,8 C 90 % 1021,8 hPa 0,0 l/m 6,0 km/h (2 Bft) S-SW 212 10 min 0,000 mm 287 W/m 1,3 C 2,8 C 11,3 km/h (2 Bft) 100 %
07.12.2017 13:00 3,0 C 2,8 C 3,0 C 89 % 1021,6 hPa 0,0 l/m 8,7 km/h (2 Bft) SW 231 10 min 0,000 mm 223 W/m 1,4 C 0,9 C 17,7 km/h (3 Bft) 100 %
07.12.2017 13:10 3,2 C 3,0 C 3,2 C 88 % 1021,4 hPa 0,0 l/m 8,6 km/h (2 Bft) SW 222 10 min 0,101 mm 250 W/m 1,4 C 1,2 C 17,7 km/h (3 Bft) 99 %
07.12.2017 13:20 3,4 C 3,2 C 3,4 C 87 % 1021,1 hPa 0,0 l/m 7,6 km/h (2 Bft) S 187 10 min 0,000 mm 153 W/m 1,4 C 2,3 C 16,1 km/h (3 Bft) 99 %
07.12.2017 13:30 3,5 C 3,4 C 3,5 C 86 % 1020,9 hPa 0,0 l/m 8,3 km/h (2 Bft) S 175 0 min 0,000 mm 62 W/m 1,4 C 1,8 C 17,7 km/h (3 Bft) 100 %
07.12.2017 13:40 3,6 C 3,5 C 3,6 C 86 % 1020,8 hPa 0,0 l/m 6,6 km/h (2 Bft) S-SW 200 10 min 0,000 mm 186 W/m 1,5 C 3,4 C 17,7 km/h (3 Bft) 91 %
07.12.2017 13:50 3,9 C 3,6 C 3,9 C 85 % 1020,6 hPa 0,0 l/m 8,0 km/h (2 Bft) S-SW 200 10 min 0,000 mm 218 W/m 1,6 C 2,4 C 17,7 km/h (3 Bft) 100 %
07.12.2017 14:00 4,1 C 3,9 C 4,1 C 86 % 1020,3 hPa 0,0 l/m 8,3 km/h (2 Bft) S-SW 213 0 min 0,076 mm 69 W/m 2,0 C 2,4 C 17,7 km/h (3 Bft) 100 %
07.12.2017 14:10 4,4 C 4,1 C 4,4 C 84 % 1020,0 hPa 0,0 l/m 6,7 km/h (2 Bft) S 188 10 min 0,000 mm 160 W/m 1,9 C 4,1 C 14,5 km/h (3 Bft) 100 %
07.12.2017 14:20 4,5 C 4,4 C 4,5 C 84 % 1019,9 hPa 0,0 l/m 6,5 km/h (2 Bft) S-SW 198 0 min 0,000 mm 111 W/m 2,0 C 4,4 C 12,9 km/h (3 Bft) 100 %
07.12.2017 14:30 4,6 C 4,5 C 4,6 C 83 % 1019,7 hPa 0,0 l/m 7,7 km/h (2 Bft) S-SW 200 0 min 0,000 mm 62 W/m 2,0 C 3,4 C 14,5 km/h (3 Bft) 99 %
07.12.2017 14:40 4,6 C 4,6 C 4,6 C 83 % 1019,6 hPa 0,0 l/m 7,2 km/h (2 Bft) S-SW 202 0 min 0,000 mm 65 W/m 2,0 C 3,9 C 14,5 km/h (3 Bft) 100 %
07.12.2017 14:50 4,6 C 4,6 C 4,6 C 83 % 1019,4 hPa 0,0 l/m 9,0 km/h (2 Bft) S 186 0 min 0,000 mm 32 W/m 2,0 C 2,4 C 16,1 km/h (3 Bft) 100 %
07.12.2017 15:00 4,5 C 4,5 C 4,6 C 84 % 1019,2 hPa 0,0 l/m 8,1 km/h (2 Bft) S-SW 203 0 min 0,051 mm 30 W/m 2,0 C 3,0 C 14,5 km/h (3 Bft) 100 %
07.12.2017 15:10 4,4 C 4,4 C 4,5 C 84 % 1019,0 hPa 0,0 l/m 8,7 km/h (2 Bft) S-SW 202 0 min 0,000 mm 28 W/m 1,9 C 2,4 C 16,1 km/h (3 Bft) 100 %
07.12.2017 15:20 4,3 C 4,3 C 4,4 C 84 % 1018,9 hPa 0,0 l/m 9,0 km/h (2 Bft) S-SW 193 0 min 0,000 mm 26 W/m 1,8 C 2,1 C 16,1 km/h (3 Bft) 100 %
07.12.2017 15:30 4,3 C 4,3 C 4,3 C 85 % 1018,7 hPa 0,0 l/m 7,4 km/h (2 Bft) S-SW 200 0 min 0,000 mm 23 W/m 2,0 C 3,4 C 16,1 km/h (3 Bft) 99 %
07.12.2017 15:40 4,2 C 4,2 C 4,3 C 85 % 1018,6 hPa 0,0 l/m 8,4 km/h (2 Bft) S-SW 211 0 min 0,000 mm 19 W/m 1,9 C 2,4 C 16,1 km/h (3 Bft) 100 %
07.12.2017 15:50 4,1 C 4,1 C 4,2 C 85 % 1018,5 hPa 0,0 l/m 7,4 km/h (2 Bft) S 190 0 min 0,000 mm 18 W/m 1,8 C 3,2 C 11,3 km/h (2 Bft) 99 %
07.12.2017 16:00 3,9 C 3,9 C 4,1 C 85 % 1018,2 hPa 0,0 l/m 6,3 km/h (2 Bft) S-SW 205 0 min 0,026 mm 14 W/m 1,6 C 3,9 C 11,3 km/h (2 Bft) 99 %
07.12.2017 16:10 3,7 C 3,7 C 3,9 C 85 % 1018,1 hPa 0,0 l/m 7,0 km/h (2 Bft) S 189 0 min 0,000 mm 9 W/m 1,4 C 3,1 C 11,3 km/h (2 Bft) 100 %
07.12.2017 16:20 3,4 C 3,4 C 3,7 C 86 % 1018,0 hPa 0,0 l/m 5,8 km/h (2 Bft) S 190 0 min 0,000 mm 5 W/m 1,3 C 3,4 C 9,7 km/h (2 Bft) 100 %
07.12.2017 16:30 3,1 C 3,1 C 3,4 C 86 % 1018,0 hPa 0,0 l/m 4,0 km/h (1 Bft) S-SW 194 0 min 0,000 mm 0 W/m 1,0 C 3,1 C 8,0 km/h (2 Bft) 100 %
07.12.2017 16:40 2,7 C 2,7 C 3,1 C 88 % 1017,9 hPa 0,0 l/m 3,6 km/h (1 Bft) S 184 0 min 0,000 mm 0 W/m 0,9 C 2,7 C 8,0 km/h (2 Bft) 100 %
07.12.2017 16:50 2,4 C 2,4 C 2,7 C 88 % 1017,8 hPa 0,0 l/m 3,1 km/h (1 Bft) S-SW 193 0 min 0,000 mm 0 W/m 0,6 C 2,4 C 6,4 km/h (2 Bft) 100 %
07.12.2017 17:00 2,3 C 2,3 C 2,5 C 89 % 1017,6 hPa 0,0 l/m 2,7 km/h (1 Bft) SW 217 0 min 0,000 mm 0 W/m 0,7 C 2,3 C 8,0 km/h (2 Bft) 99 %
07.12.2017 17:10 2,2 C 2,2 C 2,3 C 88 % 1017,5 hPa 0,0 l/m 4,4 km/h (1 Bft) S-SW 213 0 min 0,000 mm 0 W/m 0,4 C 2,2 C 9,7 km/h (2 Bft) 100 %
07.12.2017 17:20 2,4 C 2,2 C 2,4 C 89 % 1017,3 hPa 0,0 l/m 6,6 km/h (2 Bft) S-SW 207 0 min 0,000 mm 0 W/m 0,8 C 2,2 C 11,3 km/h (2 Bft) 100 %
07.12.2017 17:30 2,4 C 2,4 C 2,4 C 88 % 1017,1 hPa 0,0 l/m 4,9 km/h (1 Bft) S 175 0 min 0,000 mm 0 W/m 0,6 C 2,4 C 11,3 km/h (2 Bft) 91 %
07.12.2017 17:40 2,4 C 2,4 C 2,4 C 88 % 1017,0 hPa 0,0 l/m 3,9 km/h (1 Bft) S 188 0 min 0,000 mm 0 W/m 0,6 C 2,4 C 8,0 km/h (2 Bft) 99 %
07.12.2017 17:50 2,4 C 2,3 C 2,4 C 88 % 1016,9 hPa 0,0 l/m 3,9 km/h (1 Bft) S 173 0 min 0,000 mm 0 W/m 0,6 C 2,4 C 6,4 km/h (2 Bft) 99 %
07.12.2017 18:00 2,3 C 2,3 C 2,4 C 88 % 1016,7 hPa 0,0 l/m 4,0 km/h (1 Bft) S-SW 194 0 min 0,000 mm 0 W/m 0,5 C 2,3 C 9,7 km/h (2 Bft) 100 %
07.12.2017 18:10 2,4 C 2,3 C 2,4 C 88 % 1016,5 hPa 0,0 l/m 4,6 km/h (1 Bft) S-SO 156 0 min 0,000 mm 0 W/m 0,6 C 2,4 C 8,0 km/h (2 Bft) 100 %
07.12.2017 18:20 2,6 C 2,4 C 2,6 C 87 % 1016,7 hPa 0,0 l/m 2,6 km/h (1 Bft) S-SO 164 0 min 0,000 mm 0 W/m 0,7 C 2,6 C 4,8 km/h (1 Bft) 100 %
07.12.2017 18:30 2,4 C 2,4 C 2,6 C 87 % 1016,3 hPa 0,0 l/m 3,0 km/h (1 Bft) S-SW 201 0 min 0,000 mm 0 W/m 0,5 C 2,4 C 8,0 km/h (2 Bft) 99 %
07.12.2017 18:40 2,7 C 2,4 C 2,7 C 87 % 1016,3 hPa 0,0 l/m 6,7 km/h (2 Bft) S-SW 196 0 min 0,000 mm 0 W/m 0,8 C 2,4 C 14,5 km/h (3 Bft) 99 %
07.12.2017 18:50 3,2 C 2,7 C 3,2 C 85 % 1016,1 hPa 0,0 l/m 7,9 km/h (2 Bft) S-SW 202 0 min 0,000 mm 0 W/m 0,9 C 1,8 C 20,9 km/h (4 Bft) 100 %
07.12.2017 19:00 3,5 C 3,2 C 3,5 C 85 % 1016,0 hPa 0,0 l/m 5,2 km/h (1 Bft) S 183 0 min 0,000 mm 0 W/m 1,2 C 3,5 C 14,5 km/h (3 Bft) 99 %
07.12.2017 19:10 3,5 C 3,5 C 3,5 C 84 % 1015,7 hPa 0,0 l/m 4,1 km/h (1 Bft) S-SO 155 0 min 0,000 mm 0 W/m 1,1 C 3,5 C 8,0 km/h (2 Bft) 99 %
07.12.2017 19:20 3,3 C 3,3 C 3,6 C 83 % 1015,5 hPa 0,0 l/m 4,7 km/h (1 Bft) S-SO 157 0 min 0,000 mm 0 W/m 0,7 C 3,3 C 8,0 km/h (2 Bft) 100 %
07.12.2017 19:30 3,1 C 3,1 C 3,3 C 84 % 1015,5 hPa 0,0 l/m 1,9 km/h (1 Bft) S-SO 167 0 min 0,000 mm 0 W/m 0,7 C 3,1 C 6,4 km/h (2 Bft) 100 %
07.12.2017 19:40 3,0 C 2,9 C 3,1 C 85 % 1015,2 hPa 0,0 l/m 4,8 km/h (1 Bft) S-SO 156 0 min 0,000 mm 0 W/m 0,7 C 3,0 C 9,7 km/h (2 Bft) 98 %
07.12.2017 19:50 3,0 C 3,0 C 3,0 C 85 % 1015,1 hPa 0,0 l/m 4,9 km/h (1 Bft) S 171 0 min 0,000 mm 0 W/m 0,7 C 3,0 C 9,7 km/h (2 Bft) 100 %
07.12.2017 20:00 3,0 C 3,0 C 3,1 C 85 % 1014,7 hPa 0,0 l/m 5,0 km/h (1 Bft) S 169 0 min 0,000 mm 0 W/m 0,7 C 3,0 C 9,7 km/h (2 Bft) 100 %
07.12.2017 20:10 2,7 C 2,7 C 3,0 C 86 % 1014,3 hPa 0,0 l/m 5,3 km/h (1 Bft) S-SO 167 0 min 0,000 mm 0 W/m 0,6 C 2,7 C 11,3 km/h (2 Bft) 99 %
07.12.2017 20:20 2,7 C 2,6 C 2,7 C 86 % 1014,1 hPa 0,0 l/m 5,3 km/h (1 Bft) S-SO 151 0 min 0,000 mm 0 W/m 0,6 C 2,7 C 11,3 km/h (2 Bft) 99 %
07.12.2017 20:30 2,8 C 2,7 C 2,9 C 85 % 1013,9 hPa 0,0 l/m 5,6 km/h (1 Bft) S 174 0 min 0,000 mm 0 W/m 0,5 C 2,8 C 14,5 km/h (3 Bft) 100 %
07.12.2017 20:40 2,8 C 2,8 C 2,9 C 85 % 1013,5 hPa 0,0 l/m 5,7 km/h (1 Bft) S-SO 150 0 min 0,000 mm 0 W/m 0,5 C 2,8 C 12,9 km/h (3 Bft) 100 %
07.12.2017 20:50 3,2 C 2,8 C 3,2 C 84 % 1013,2 hPa 0,0 l/m 6,4 km/h (2 Bft) S-SO 160 0 min 0,000 mm 0 W/m 0,8 C 3,2 C 16,1 km/h (3 Bft) 100 %
07.12.2017 21:00 3,1 C 3,1 C 3,2 C 85 % 1013,3 hPa 0,0 l/m 5,6 km/h (1 Bft) S 190 0 min 0,000 mm 0 W/m 0,8 C 3,1 C 11,3 km/h (2 Bft) 100 %
07.12.2017 21:10 2,7 C 2,7 C 3,1 C 85 % 1013,1 hPa 0,0 l/m 4,8 km/h (1 Bft) S 180 0 min 0,000 mm 0 W/m 0,4 C 2,7 C 11,3 km/h (2 Bft) 100 %
07.12.2017 21:20 2,7 C 2,6 C 2,7 C 86 % 1012,8 hPa 0,0 l/m 6,4 km/h (2 Bft) S-SO 157 0 min 0,000 mm 0 W/m 0,6 C 2,7 C 14,5 km/h (3 Bft) 100 %
07.12.2017 21:30 2,9 C 2,7 C 2,9 C 86 % 1012,6 hPa 0,0 l/m 6,4 km/h (2 Bft) S 180 0 min 0,000 mm 0 W/m 0,8 C 2,9 C 16,1 km/h (3 Bft) 99 %
07.12.2017 21:40 3,3 C 2,9 C 3,3 C 85 % 1012,5 hPa 0,0 l/m 6,4 km/h (2 Bft) S-SO 157 0 min 0,000 mm 0 W/m 1,0 C 3,3 C 11,3 km/h (2 Bft) 99 %
07.12.2017 21:50 3,3 C 3,3 C 3,3 C 85 % 1012,3 hPa 0,0 l/m 4,8 km/h (1 Bft) S 180 0 min 0,000 mm 0 W/m 1,0 C 3,3 C 9,7 km/h (2 Bft) 98 %
07.12.2017 22:00 3,5 C 3,3 C 3,5 C 85 % 1012,0 hPa 0,0 l/m 4,8 km/h (1 Bft) S 180 0 min 0,000 mm 0 W/m 1,2 C 3,5 C 11,3 km/h (2 Bft) 98 %
07.12.2017 22:10 3,6 C 3,5 C 3,6 C 85 % 1011,9 hPa 0,0 l/m 4,8 km/h (1 Bft) S 180 0 min 0,000 mm 0 W/m 1,3 C 3,6 C 8,0 km/h (2 Bft) 97 %
07.12.2017 22:20 3,8 C 3,6 C 3,8 C 86 % 1011,8 hPa 0,0 l/m 6,4 km/h (2 Bft) S 180 0 min 0,000 mm 0 W/m 1,7 C 3,8 C 12,9 km/h (3 Bft) 98 %
07.12.2017 22:30 3,9 C 3,7 C 3,9 C 88 % 1011,5 hPa 0,2 l/m 6,4 km/h (2 Bft) S 180 0 min 0,000 mm 0 W/m 2,1 C 3,9 C 11,3 km/h (2 Bft) 97 %
07.12.2017 22:40 3,9 C 3,9 C 3,9 C 89 % 1011,5 hPa 0,2 l/m 6,4 km/h (2 Bft) S 180 0 min 0,000 mm 0 W/m 2,3 C 3,9 C 14,5 km/h (3 Bft) 97 %
07.12.2017 22:50 3,9 C 3,9 C 4,0 C 89 % 1011,4 hPa 0,0 l/m 6,4 km/h (2 Bft) S 180 0 min 0,000 mm 0 W/m 2,3 C 3,9 C 14,5 km/h (3 Bft) 98 %
07.12.2017 23:00 3,8 C 3,8 C 3,9 C 90 % 1011,2 hPa 0,2 l/m 4,8 km/h (1 Bft) S 180 0 min 0,000 mm 0 W/m 2,3 C 3,8 C 11,3 km/h (2 Bft) 97 %
07.12.2017 23:10 3,9 C 3,8 C 3,9 C 90 % 1011,1 hPa 0,0 l/m 6,4 km/h (2 Bft) S 180 0 min 0,000 mm 0 W/m 2,4 C 3,9 C 11,3 km/h (2 Bft) 98 %
07.12.2017 23:20 4,0 C 3,9 C 4,0 C 90 % 1010,8 hPa 0,0 l/m 6,4 km/h (2 Bft) S 180 0 min 0,000 mm 0 W/m 2,5 C 4,0 C 11,3 km/h (2 Bft) 88 %
07.12.2017 23:30 4,0 C 3,9 C 4,0 C 91 % 1010,8 hPa 0,0 l/m 6,4 km/h (2 Bft) S 180 0 min 0,000 mm 0 W/m 2,7 C 4,0 C 11,3 km/h (2 Bft) 98 %
07.12.2017 23:40 4,0 C 4,0 C 4,0 C 91 % 1010,7 hPa 0,2 l/m 6,4 km/h (2 Bft) S-SW 202 0 min 0,000 mm 0 W/m 2,7 C 4,0 C 11,3 km/h (2 Bft) 98 %
07.12.2017 23:50 4,1 C 4,0 C 4,1 C 91 % 1010,7 hPa 0,0 l/m 8,0 km/h (2 Bft) S-SW 202 0 min 0,000 mm 0 W/m 2,8 C 2,7 C 14,5 km/h (3 Bft) 97 %
_ Min-Zeit 07:20 07:20 07:00 14:30 23:40 - 00:10 - - - - - 06:50 07:50 00:20 23:20
Minimum _ -2,0 C -2,0 C -1,9 C 83 % 1010,7 hPa - 0,0 km/h (0 Bft) - - - - - -3,2 C -3,1 C 0,0 km/h (0 Bft) 88 %
_ Max-Zeit 14:30 14:40 14:30 01:30 00:00 22:30 12:40 - - 11:00 13:10 12:50 23:50 14:20 07:50 00:00
Maximum _ 4,6 C 4,6 C 4,6 C 94 % 1028,9 hPa 0,2 l/m 9,1 km/h
S-SW (2 Bft)
- - 10 min 0,101 mm 287 W/m 2,8 C 4,4 C 24,1 km/h
S-SW (4 Bft)
100 %
Durchschnitt _ 1,5 C 1,4 C 1,5 C 89 % 1021,1 hPa #0,8 l/m 4,7 km/h (1 Bft) S-SW - #2:50 h #0,356 mm 103 W/m -0,2 C 1,2 C 10,6 km/h (2 Bft) 99 %
PRIVATE WETTERSTATION BILLIGHEIM-ALLFELD - www.neckar-odenwald-wetter.de - Holger Sonntag